パゴパゴ の空港の天気 - METARとTAF

パゴパゴ国際空港 ( NSTU / PPG ) - アメリカ領サモア パゴパゴ
飛行場実況気象(Metar)
観測時間09/18 10:52 SST (09/18 21:52 UTC)
風向・風速東 7m/s
視程10km以上
天気現象
少しの雲 雲底高度 670m
全天の4割程度の雲 雲底高度 1220m
気温30.3℃
湿度80%
気圧1015.2hPa
METARNSTU 182152Z 09014KT 12SM FEW022 SCT040 30/27 A2998 RMK SLP152 T03030265
過去の天気等 Google飛行場航空写真 Wunderground天気予報

過去48時間のMETAR

飛行場予報(TAF)
発表時間: 9/18 06:25 SST (9/18 17:25 UTC)
予報対象時間: 18日7時 SST ~ 19日7時 SST
風向・風速東 6m/s
視程10km以上
天気現象周辺でしゅう雨
全天の4割程度の雲 雲底高度 550m
全天の4割程度の雲 雲底高度 1070m
全天の8割程度の雲 雲底高度 3050m
NSTU 181725Z 1818/1918 08011KT P6SM VCSH SCT018 SCT035 BKN100